Time;durP1;ratioP1;P1;durP2;ratioP2;P2;SDS_P1;SDS_P2;PMS_P1;PMS_P2;Temp;Humidity;BMP_temperature;BMP_pressure;BME280_temperature;BME280_humidity;BME280_pressure;Samples;Min_cycle;Max_cycle;Signal;HPM_P1;HPM_P2
2023/10/16 00:02:22;;;;;;;2.88;0.88;;;8.00;99.90;;;;;;5027110;28;20048;-62
2023/10/16 00:04:48;;;;;;;5.18;1.08;;;8.00;99.90;;;;;;5010987;28;20556;-63
2023/10/16 00:07:21;;;;;;;4.28;1.30;;;8.00;99.90;;;;;;4999612;28;20566;-63
2023/10/16 00:09:53;;;;;;;5.15;1.58;;;8.10;99.90;;;;;;5033195;28;20049;-63
2023/10/16 00:12:19;;;;;;;;;;;8.00;99.90;;;;;;5032021;28;20044;-63
2023/10/16 00:14:47;;;;;;;3.25;0.95;;;8.00;99.90;;;;;;5024521;28;20651;-63
2023/10/16 00:17:15;;;;;;;2.10;0.85;;;8.00;99.90;;;;;;5013793;28;20583;-63
2023/10/16 00:19:46;;;;;;;4.88;1.25;;;8.00;99.90;;;;;;5020489;28;20120;-63
2023/10/16 00:22:18;;;;;;;2.38;1.10;;;8.00;99.90;;;;;;5040204;28;20047;-62
2023/10/16 00:24:47;;;;;;;6.10;1.10;;;8.00;99.90;;;;;;5038697;28;20500;-63
2023/10/16 00:27:17;;;;;;;5.43;1.20;;;8.00;99.90;;;;;;5020203;28;20052;-62
2023/10/16 00:29:43;;;;;;;3.17;0.95;;;8.00;99.90;;;;;;5037469;28;20036;-63
2023/10/16 00:32:11;;;;;;;2.75;0.90;;;8.00;99.90;;;;;;5022324;28;20106;-62
2023/10/16 00:34:37;;;;;;;2.45;0.80;;;8.00;99.90;;;;;;5032779;28;20051;-62
2023/10/16 00:37:07;;;;;;;4.70;1.30;;;8.00;99.90;;;;;;5021176;28;20638;-62
2023/10/16 00:39:35;;;;;;;2.53;0.82;;;8.00;99.90;;;;;;5038861;28;20535;-62
2023/10/16 00:42:02;;;;;;;3.45;1.20;;;8.00;99.90;;;;;;5040196;28;20033;-62
2023/10/16 00:44:34;;;;;;;3.22;0.90;;;8.00;99.90;;;;;;5021574;28;20040;-62
2023/10/16 00:47:05;;;;;;;3.10;0.85;;;8.00;99.90;;;;;;5037819;28;20033;-62
2023/10/16 00:49:35;;;;;;;2.10;0.80;;;8.00;99.90;;;;;;5018076;28;20113;-63
2023/10/16 00:52:06;;;;;;;2.67;0.82;;;8.00;99.90;;;;;;5025211;28;20068;-63
2023/10/16 00:54:39;;;;;;;2.78;0.93;;;8.00;99.90;;;;;;5009902;28;20481;-63
2023/10/16 00:57:08;;;;;;;3.22;0.88;;;8.00;99.90;;;;;;5027295;28;20049;-63
2023/10/16 00:59:35;;;;;;;3.92;1.23;;;8.00;99.90;;;;;;5000557;28;20036;-63
2023/10/16 01:02:17;;;;;;;3.53;1.10;;;7.90;99.90;;;;;;5009944;28;20111;-62
2023/10/16 01:04:43;;;;;;;3.45;0.90;;;7.90;99.90;;;;;;5023779;28;20045;-62
2023/10/16 01:07:14;;;;;;;3.70;1.30;;;7.90;99.90;;;;;;5027735;28;20073;-62
2023/10/16 01:09:40;;;;;;;4.13;0.80;;;7.90;99.90;;;;;;5030820;28;20041;-63
2023/10/16 01:12:07;;;;;;;4.88;0.88;;;7.90;99.90;;;;;;5010764;28;20045;-63
2023/10/16 01:14:37;;;;;;;1.88;0.80;;;7.90;99.90;;;;;;5013886;28;20048;-62
2023/10/16 01:17:08;;;;;;;1.85;0.77;;;7.90;99.90;;;;;;5003991;28;20710;-63
2023/10/16 01:19:36;;;;;;;6.15;0.90;;;7.90;99.90;;;;;;5036976;28;20037;-62
2023/10/16 01:22:02;;;;;;;2.30;0.88;;;7.90;99.90;;;;;;5040496;28;20427;-63
2023/10/16 01:24:29;;;;;;;3.10;1.15;;;7.90;99.90;;;;;;5019653;28;20056;-63
2023/10/16 01:27:06;;;;;;;2.00;1.08;;;8.00;99.90;;;;;;5017322;28;20040;-62
2023/10/16 01:29:33;;;;;;;4.63;0.90;;;7.90;99.90;;;;;;5026800;28;20392;-63
2023/10/16 01:31:59;;;;;;;2.92;0.93;;;8.00;99.90;;;;;;5011898;28;20130;-63
2023/10/16 01:34:25;;;;;;;1.77;0.82;;;8.00;99.90;;;;;;5030200;28;20407;-63
2023/10/16 01:36:51;;;;;;;2.90;0.88;;;8.00;99.90;;;;;;5027079;28;20037;-62
2023/10/16 01:42:02;;;;;;;3.80;1.02;;;8.00;99.90;;;;;;5011137;28;20033;-62
2023/10/16 01:44:28;;;;;;;2.65;1.00;;;8.00;99.90;;;;;;5017564;28;20056;-63
2023/10/16 01:46:55;;;;;;;5.40;1.00;;;7.90;99.90;;;;;;5015336;28;20105;-63
2023/10/16 01:49:24;;;;;;;5.78;1.00;;;7.90;99.90;;;;;;5032370;28;20429;-63
2023/10/16 01:51:55;;;;;;;4.05;1.00;;;7.90;99.90;;;;;;4997821;28;20048;-62
2023/10/16 01:54:24;;;;;;;2.58;0.73;;;7.90;99.90;;;;;;5010778;28;20504;-62
2023/10/16 01:56:50;;;;;;;6.00;0.90;;;7.80;99.90;;;;;;4991489;28;20052;-62
2023/10/16 01:59:17;;;;;;;1.67;0.90;;;7.80;99.90;;;;;;4998934;28;20041;-63
2023/10/16 02:01:42;;;;;;;4.75;1.05;;;7.80;99.90;;;;;;5030137;28;20028;-62
2023/10/16 02:04:08;;;;;;;2.30;1.00;;;7.80;99.90;;;;;;5015224;28;20589;-63
2023/10/16 02:06:34;;;;;;;2.03;0.70;;;7.80;99.90;;;;;;5028828;28;20045;-62
2023/10/16 02:09:04;;;;;;;6.10;1.00;;;7.80;99.90;;;;;;4997416;28;20079;-62
2023/10/16 02:11:29;;;;;;;3.17;1.00;;;7.70;99.90;;;;;;5029034;28;20625;-63
2023/10/16 02:13:55;;;;;;;2.58;0.75;;;7.80;99.90;;;;;;5026968;28;20045;-63
2023/10/16 02:16:25;;;;;;;4.28;1.20;;;7.80;99.90;;;;;;5027388;28;20090;-63
2023/10/16 02:18:51;;;;;;;2.92;1.05;;;7.80;99.90;;;;;;5032256;28;20033;-62
2023/10/16 02:21:17;;;;;;;3.97;1.02;;;7.80;99.90;;;;;;5013766;28;20064;-63
2023/10/16 02:23:44;;;;;;;5.90;1.35;;;7.80;99.90;;;;;;5012890;28;20479;-63
2023/10/16 02:26:11;;;;;;;3.15;1.15;;;7.80;99.90;;;;;;4996632;28;20045;-62
2023/10/16 02:28:40;;;;;;;3.35;1.00;;;7.80;99.90;;;;;;5028018;28;20502;-63
2023/10/16 02:31:14;;;;;;;1.70;0.82;;;7.80;99.90;;;;;;5006508;28;20049;-62
2023/10/16 02:33:45;;;;;;;7.82;1.25;;;7.80;99.90;;;;;;5019593;28;20361;-63
2023/10/16 02:36:12;;;;;;;4.45;1.00;;;7.80;99.90;;;;;;5022036;28;20071;-63
2023/10/16 02:38:38;;;;;;;3.50;1.10;;;7.80;99.90;;;;;;5008126;28;20040;-62
2023/10/16 02:41:04;;;;;;;3.33;0.90;;;7.80;99.90;;;;;;5010026;28;20495;-63
2023/10/16 02:43:31;;;;;;;2.58;1.00;;;7.80;99.90;;;;;;5009399;28;20037;-63
2023/10/16 02:46:01;;;;;;;5.93;0.93;;;7.80;99.90;;;;;;5004198;28;20772;-63
2023/10/16 02:48:27;;;;;;;3.83;0.90;;;7.80;99.90;;;;;;5027042;28;20072;-63
2023/10/16 02:50:59;;;;;;;3.20;0.80;;;7.80;99.90;;;;;;5014084;28;20041;-62
2023/10/16 02:53:29;;;;;;;2.25;0.93;;;7.70;99.90;;;;;;5013748;28;20042;-62
2023/10/16 02:56:05;;;;;;;3.75;0.90;;;7.70;99.90;;;;;;5011546;28;20045;-63
2023/10/16 02:58:32;;;;;;;2.65;1.08;;;7.70;99.90;;;;;;5031034;28;20037;-63
2023/10/16 03:00:59;;;;;;;2.08;0.93;;;7.70;99.90;;;;;;5011022;28;20554;-63
2023/10/16 03:03:26;;;;;;;1.92;1.35;;;7.70;99.90;;;;;;5011060;28;20046;-63
2023/10/16 03:05:55;;;;;;;6.10;0.90;;;7.70;99.90;;;;;;5023468;28;20045;-62
2023/10/16 03:08:30;;;;;;;4.95;0.90;;;7.70;99.90;;;;;;5025300;28;20199;-62
2023/10/16 03:11:04;;;;;;;3.22;0.80;;;7.70;99.90;;;;;;5012647;28;20549;-63
2023/10/16 03:13:35;;;;;;;4.85;1.00;;;7.70;99.90;;;;;;5009946;28;20065;-62
2023/10/16 03:16:05;;;;;;;3.00;0.98;;;7.70;99.90;;;;;;5023080;28;20513;-63
2023/10/16 03:18:32;;;;;;;5.22;0.95;;;7.80;99.90;;;;;;5025193;28;20650;-62
2023/10/16 03:23:43;;;;;;;4.63;1.17;;;7.80;99.90;;;;;;5010406;28;20073;-63
2023/10/16 03:26:25;;;;;;;2.80;0.73;;;7.90;99.90;;;;;;5008898;28;20049;-63
2023/10/16 03:28:54;;;;;;;3.88;1.30;;;7.90;99.90;;;;;;5025190;28;20404;-62
2023/10/16 03:31:20;;;;;;;5.63;1.10;;;7.90;99.90;;;;;;5012466;28;20092;-62
2023/10/16 03:33:50;;;;;;;3.20;0.95;;;7.90;99.90;;;;;;5012619;28;20064;-63
2023/10/16 03:36:17;;;;;;;5.32;1.40;;;8.00;99.90;;;;;;5013800;28;20068;-62
2023/10/16 03:38:43;;;;;;;5.00;1.10;;;8.00;99.90;;;;;;5013867;28;20109;-63
2023/10/16 03:43:44;;;;;;;2.80;1.10;;;8.00;99.90;;;;;;5026636;28;20451;-62
2023/10/16 03:46:10;;;;;;;7.13;1.63;;;8.00;99.90;;;;;;5025100;28;20045;-63
2023/10/16 03:48:38;;;;;;;5.45;1.10;;;8.00;99.90;;;;;;5013184;28;20041;-63
2023/10/16 03:51:08;;;;;;;5.80;1.10;;;8.00;99.90;;;;;;5022737;28;20046;-62
2023/10/16 03:53:37;;;;;;;4.18;1.10;;;8.00;99.90;;;;;;5012037;28;20590;-63
2023/10/16 03:56:07;;;;;;;5.05;1.17;;;8.00;99.90;;;;;;5011006;28;20106;-62
2023/10/16 03:58:40;;;;;;;6.38;1.27;;;8.00;99.90;;;;;;5010049;28;20033;-63
2023/10/16 04:01:10;;;;;;;3.80;0.98;;;8.00;99.90;;;;;;5027862;28;20530;-63
2023/10/16 04:03:56;;;;;;;3.38;0.95;;;8.10;99.90;;;;;;5023160;28;20496;-62
2023/10/16 04:06:22;;;;;;;2.53;0.95;;;8.10;99.90;;;;;;5023231;28;20046;-63
2023/10/16 04:08:49;;;;;;;3.40;1.15;;;8.10;99.90;;;;;;5013620;28;20076;-62
2023/10/16 04:11:20;;;;;;;4.72;1.00;;;8.10;99.90;;;;;;4993503;28;20042;-63
2023/10/16 04:13:49;;;;;;;3.88;0.90;;;8.10;99.90;;;;;;5009432;28;20037;-63
2023/10/16 04:21:40;;;;;;;3.53;0.93;;;8.10;99.90;;;;;;5009940;28;20045;-62
2023/10/16 04:27:22;;;;;;;7.28;1.00;;;8.10;99.90;;;;;;5021624;28;20598;-62
2023/10/16 04:32:20;;;;;;;4.20;1.20;;;8.00;99.90;;;;;;5013015;28;20504;-62
2023/10/16 04:34:56;;;;;;;6.80;1.15;;;8.10;99.90;;;;;;5014643;28;20053;-63
2023/10/16 04:53:08;;;;;;;6.53;1.13;;;8.00;99.90;;;;;;5028623;28;20041;-63
2023/10/16 05:03:35;;;;;;;3.70;0.90;;;8.00;99.90;;;;;;5029215;28;20408;-62
2023/10/16 05:08:59;;;;;;;5.87;1.13;;;8.00;99.90;;;;;;5018642;28;20087;-63
2023/10/16 05:22:09;;;;;;;5.50;1.15;;;7.80;99.90;;;;;;5031215;28;20594;-63
2023/10/16 06:14:14;;;;;;;8.00;1.38;;;7.60;99.90;;;;;;4990740;28;20472;-61
2023/10/16 06:16:47;;;;;;;6.35;1.77;;;7.70;99.90;;;;;;5005605;28;20041;-61
2023/10/16 06:19:14;;;;;;;5.65;1.50;;;7.70;99.90;;;;;;4988552;28;20053;-61
2023/10/16 06:21:48;;;;;;;3.15;1.42;;;7.70;99.90;;;;;;4990128;28;21308;-61
2023/10/16 06:24:32;;;;;;;6.25;1.70;;;7.70;99.90;;;;;;5012497;28;20139;-61
2023/10/16 06:27:00;;;;;;;4.22;1.67;;;7.70;99.90;;;;;;4999809;28;20140;-61
2023/10/16 06:29:35;;;;;;;6.85;1.73;;;7.80;99.90;;;;;;4995119;28;20065;-62
2023/10/16 06:32:07;;;;;;;9.95;2.20;;;7.80;99.90;;;;;;4995873;28;20044;-60
2023/10/16 06:34:34;;;;;;;7.55;1.67;;;7.80;99.90;;;;;;5031371;28;20055;-60
2023/10/16 06:37:05;;;;;;;7.47;1.63;;;7.80;99.90;;;;;;5011994;28;20037;-61
2023/10/16 06:39:41;;;;;;;5.05;2.30;;;7.80;99.90;;;;;;5031091;28;20098;-62
2023/10/16 06:42:14;;;;;;;2.40;1.52;;;7.80;99.90;;;;;;5035177;28;20087;-61
2023/10/16 06:44:42;;;;;;;9.95;2.05;;;7.80;99.90;;;;;;5032333;28;20041;-61
2023/10/16 06:47:12;;;;;;;3.95;1.80;;;7.80;99.90;;;;;;5022198;28;20489;-60
2023/10/16 06:49:38;;;;;;;4.35;1.65;;;7.90;99.90;;;;;;5034484;28;20149;-61
2023/10/16 06:52:06;;;;;;;6.75;1.60;;;7.90;99.90;;;;;;5017287;28;20056;-60
2023/10/16 06:54:37;;;;;;;3.65;1.60;;;7.90;99.90;;;;;;5037151;28;20483;-60
2023/10/16 06:57:23;;;;;;;4.10;1.70;;;7.90;99.90;;;;;;5035043;28;20097;-61
2023/10/16 06:59:55;;;;;;;4.35;1.70;;;8.00;99.90;;;;;;5017505;28;20033;-62
2023/10/16 07:02:21;;;;;;;2.22;1.35;;;8.00;99.90;;;;;;5019217;28;20059;-61
2023/10/16 07:04:47;;;;;;;5.07;1.50;;;8.00;99.90;;;;;;5015692;28;20045;-61
2023/10/16 07:07:16;;;;;;;3.78;1.42;;;8.10;99.90;;;;;;5033303;28;20075;-61
2023/10/16 07:09:54;;;;;;;6.38;1.77;;;8.10;99.90;;;;;;5035437;28;20188;-62
2023/10/16 07:12:22;;;;;;;4.43;1.45;;;8.10;99.90;;;;;;5002855;28;20044;-61
2023/10/16 07:14:55;;;;;;;7.85;2.53;;;8.20;99.90;;;;;;5020251;28;20033;-61
2023/10/16 07:17:30;;;;;;;5.68;1.60;;;8.20;99.90;;;;;;5034988;28;20431;-61
2023/10/16 07:19:59;;;;;;;5.70;1.77;;;8.30;99.90;;;;;;4997243;28;20048;-62
2023/10/16 07:22:31;;;;;;;6.45;1.60;;;8.30;99.90;;;;;;5016566;28;20123;-61
2023/10/16 07:25:47;;;;;;;6.00;1.55;;;8.40;99.90;;;;;;5031100;28;20033;-61
2023/10/16 07:27:49;;;;;;;4.80;1.63;;;8.40;99.90;;;;;;5012380;28;20652;-61
2023/10/16 07:30:33;;;;;;;6.72;1.40;;;8.40;99.90;;;;;;5019547;28;20041;-61
2023/10/16 07:32:59;;;;;;;3.90;1.63;;;8.50;99.90;;;;;;5003267;28;20088;-61
2023/10/16 07:35:25;;;;;;;2.65;1.42;;;8.50;99.90;;;;;;5017782;28;20202;-61
2023/10/16 07:37:53;;;;;;;6.78;1.58;;;8.60;99.90;;;;;;5033954;28;20097;-62
2023/10/16 07:40:25;;;;;;;4.32;1.40;;;8.70;99.90;;;;;;5033116;28;20041;-61
2023/10/16 07:42:55;;;;;;;7.05;1.55;;;8.70;99.90;;;;;;5036866;28;20084;-60
2023/10/16 07:45:20;;;;;;;6.18;1.80;;;8.80;99.90;;;;;;5018084;28;20161;-61
2023/10/16 07:47:50;;;;;;;8.40;2.50;;;8.80;99.90;;;;;;5018890;28;20466;-61
2023/10/16 07:50:17;;;;;;;5.25;1.50;;;8.90;99.90;;;;;;5036801;28;20036;-61
2023/10/16 07:52:43;;;;;;;3.92;1.67;;;8.90;99.90;;;;;;5029552;28;20091;-61
2023/10/16 07:55:18;;;;;;;7.60;1.67;;;9.00;99.90;;;;;;5031631;28;20507;-61
2023/10/16 07:57:48;;;;;;;4.78;1.60;;;9.00;99.90;;;;;;5020827;28;20048;-61
2023/10/16 08:00:14;;;;;;;14.98;2.03;;;9.10;99.90;;;;;;5018603;28;20041;-60
2023/10/16 08:02:45;;;;;;;5.88;1.42;;;9.10;99.90;;;;;;5019138;28;20037;-61
2023/10/16 08:05:17;;;;;;;4.97;1.52;;;9.20;99.90;;;;;;5032449;28;20044;-60
2023/10/16 08:07:46;;;;;;;8.80;1.83;;;9.30;99.90;;;;;;5033915;28;20068;-61
2023/10/16 08:10:28;;;;;;;5.82;1.58;;;9.40;99.90;;;;;;5035141;28;20036;-61
2023/10/16 08:12:54;;;;;;;6.88;1.60;;;9.40;99.90;;;;;;5034524;28;20040;-61
2023/10/16 08:15:21;;;;;;;4.82;1.65;;;9.50;99.90;;;;;;5037707;28;20404;-61
2023/10/16 08:17:47;;;;;;;3.60;1.50;;;9.60;99.90;;;;;;5029890;28;20048;-61
2023/10/16 08:20:28;;;;;;;8.02;1.85;;;9.60;99.90;;;;;;5030824;28;20048;-61
2023/10/16 08:22:54;;;;;;;7.47;1.52;;;9.70;99.90;;;;;;5016530;28;20048;-61
2023/10/16 08:25:32;;;;;;;8.35;2.03;;;9.80;99.90;;;;;;5017497;28;20045;-61
2023/10/16 08:28:01;;;;;;;6.03;1.70;;;9.80;99.90;;;;;;5016264;28;20045;-61
2023/10/16 08:33:18;;;;;;;4.30;1.23;;;10.00;99.90;;;;;;5019854;28;20580;-61
2023/10/16 08:35:45;;;;;;;6.82;1.60;;;10.10;99.90;;;;;;5014260;28;20391;-61
2023/10/16 08:38:20;;;;;;;5.82;1.77;;;10.20;99.90;;;;;;5016797;28;20048;-61
2023/10/16 08:41:07;;;;;;;6.25;1.20;;;10.20;99.90;;;;;;5032895;28;20032;-61
2023/10/16 08:46:44;;;;;;;4.88;1.40;;;10.30;99.90;;;;;;5038384;28;20060;-61
2023/10/16 08:49:10;;;;;;;5.15;1.65;;;10.30;99.90;;;;;;5033364;28;20299;-61
2023/10/16 08:51:36;;;;;;;5.55;1.27;;;10.50;99.90;;;;;;5016826;28;20037;-61
2023/10/16 08:54:04;;;;;;;5.10;1.20;;;10.60;99.90;;;;;;5016834;28;20041;-61
2023/10/16 08:56:31;;;;;;;7.03;1.20;;;10.70;99.90;;;;;;5036010;28;20199;-61
2023/10/16 08:59:01;;;;;;;4.97;1.15;;;10.70;99.90;;;;;;5016558;28;20067;-61
2023/10/16 09:01:30;;;;;;;7.15;1.13;;;10.70;99.90;;;;;;5012334;28;20075;-61
2023/10/16 09:04:00;;;;;;;6.07;1.45;;;10.70;99.90;;;;;;5015764;28;20052;-61
2023/10/16 09:06:25;;;;;;;4.75;1.15;;;10.70;99.90;;;;;;5031938;28;20076;-61
2023/10/16 09:08:54;;;;;;;4.47;1.10;;;10.60;99.90;;;;;;5017632;28;20123;-61
2023/10/16 09:11:20;;;;;;;4.72;1.38;;;10.60;99.90;;;;;;5013698;28;20221;-61
2023/10/16 09:13:53;;;;;;;3.75;0.93;;;10.60;99.90;;;;;;5032138;28;20041;-61
2023/10/16 09:16:26;;;;;;;5.50;1.55;;;10.60;99.90;;;;;;5028020;28;20080;-61
2023/10/16 09:18:53;;;;;;;9.75;1.42;;;10.60;99.90;;;;;;5031987;28;20131;-61
2023/10/16 09:21:27;;;;;;;5.38;1.30;;;10.70;99.90;;;;;;5031044;28;20638;-61
2023/10/16 09:23:58;;;;;;;5.55;1.30;;;10.70;99.90;;;;;;5032381;28;20049;-61
2023/10/16 09:26:28;;;;;;;4.15;1.08;;;10.80;99.90;;;;;;5027391;28;20130;-61
2023/10/16 09:28:55;;;;;;;5.03;1.20;;;10.80;99.90;;;;;;5014386;28;20876;-60
2023/10/16 09:31:24;;;;;;;3.30;1.10;;;10.80;99.90;;;;;;5016715;28;20037;-61
2023/10/16 09:33:51;;;;;;;5.65;1.27;;;10.90;99.90;;;;;;5031144;28;20088;-62
2023/10/16 09:36:18;;;;;;;8.05;1.50;;;11.00;99.90;;;;;;5017153;28;20037;-61
2023/10/16 09:38:56;;;;;;;3.30;1.15;;;11.00;99.90;;;;;;5017344;28;20621;-61
2023/10/16 09:44:07;;;;;;;6.07;1.20;;;11.30;99.90;;;;;;5013397;28;20651;-61
2023/10/16 09:46:48;;;;;;;2.78;1.10;;;11.50;99.90;;;;;;5013125;28;20499;-61
2023/10/16 09:49:24;;;;;;;3.25;0.90;;;11.60;99.90;;;;;;5009676;28;20122;-62
2023/10/16 09:51:57;;;;;;;2.80;0.90;;;11.70;99.90;;;;;;5028356;28;20029;-61
2023/10/16 09:54:27;;;;;;;4.95;0.98;;;11.80;99.90;;;;;;5034026;28;20463;-62
2023/10/16 09:56:59;;;;;;;3.33;1.02;;;11.90;99.90;;;;;;5030498;28;20084;-60
2023/10/16 09:59:32;;;;;;;3.20;1.27;;;12.00;99.90;;;;;;5013876;28;20404;-62
2023/10/16 10:02:05;;;;;;;7.28;1.20;;;12.20;99.90;;;;;;5031655;28;20037;-61
2023/10/16 10:04:35;;;;;;;6.80;1.20;;;12.20;99.90;;;;;;5031479;28;20048;-62
2023/10/16 10:07:11;;;;;;;4.90;1.00;;;12.30;99.90;;;;;;5033186;28;20052;-62
2023/10/16 10:09:41;;;;;;;4.07;1.20;;;12.40;99.90;;;;;;5013447;28;20045;-62
2023/10/16 10:12:28;;;;;;;6.35;1.05;;;12.60;99.90;;;;;;5017910;28;20049;-62
2023/10/16 10:15:33;;;;;;;2.88;0.90;;;12.70;99.90;;;;;;5012734;28;20124;-61
2023/10/16 10:18:31;;;;;;;6.13;1.42;;;12.80;99.90;;;;;;5026941;28;20045;-62
2023/10/16 10:20:48;;;;;;;4.18;1.38;;;12.90;99.90;;;;;;5011418;28;20498;-61
2023/10/16 10:23:15;;;;;;;5.88;1.48;;;13.00;99.90;;;;;;4995537;28;20476;-61
2023/10/16 10:25:42;;;;;;;6.30;1.15;;;13.10;99.90;;;;;;5025218;28;20062;-62
2023/10/16 10:28:28;;;;;;;3.90;0.93;;;13.10;99.90;;;;;;5014545;28;20514;-61
2023/10/16 10:30:58;;;;;;;2.47;0.93;;;13.20;99.90;;;;;;5026185;28;20149;-61
2023/10/16 10:33:51;;;;;;;4.05;0.80;;;13.20;99.90;;;;;;5031257;28;20057;-62
2023/10/16 10:36:39;;;;;;;5.20;1.02;;;13.30;99.90;;;;;;5032388;28;20537;-61
2023/10/16 10:39:20;;;;;;;2.92;0.70;;;13.30;99.90;;;;;;5015480;28;20566;-61
2023/10/16 10:41:54;;;;;;;3.63;0.95;;;13.40;99.90;;;;;;5027909;28;20041;-62
2023/10/16 10:44:39;;;;;;;2.13;0.82;;;13.50;99.90;;;;;;5009800;28;20053;-61
2023/10/16 10:47:20;;;;;;;7.43;1.38;;;13.70;99.90;;;;;;5013295;28;20086;-61
2023/10/16 10:49:46;;;;;;;1.45;0.80;;;13.80;99.90;;;;;;5015083;28;20570;-62
2023/10/16 10:52:16;;;;;;;4.00;0.90;;;14.00;99.90;;;;;;5030709;28;20056;-61
2023/10/16 10:54:49;;;;;;;6.90;1.15;;;14.20;99.90;;;;;;5012594;28;20725;-62
2023/10/16 10:57:24;;;;;;;4.95;1.00;;;14.30;99.90;;;;;;5032918;28;20045;-62
2023/10/16 10:59:56;;;;;;;5.63;0.85;;;14.20;99.90;;;;;;5027319;28;20045;-61
2023/10/16 11:02:48;;;;;;;4.90;1.30;;;14.00;99.90;;;;;;5029466;28;20045;-62
2023/10/16 11:05:22;;;;;;;8.57;1.40;;;13.70;99.90;;;;;;5013744;28;20045;-62
2023/10/16 11:10:38;;;;;;;8.07;1.40;;;13.40;99.90;;;;;;5037307;28;20136;-61
2023/10/16 11:13:04;;;;;;;10.63;1.00;;;13.30;99.90;;;;;;5034031;28;20053;-62
2023/10/16 11:15:30;;;;;;;7.07;1.10;;;13.20;99.90;;;;;;5017372;28;20048;-61
2023/10/16 11:18:05;;;;;;;6.15;1.10;;;13.20;99.90;;;;;;5015549;28;20041;-61
2023/10/16 11:20:36;;;;;;;7.20;1.08;;;13.10;99.90;;;;;;5033617;28;20069;-61
2023/10/16 11:23:12;;;;;;;6.55;1.00;;;13.20;99.90;;;;;;5032868;28;20076;-62
2023/10/16 11:25:46;;;;;;;6.65;1.15;;;13.30;99.90;;;;;;5014540;28;20044;-62
2023/10/16 11:28:17;;;;;;;4.55;1.10;;;13.30;99.90;;;;;;5032729;28;20076;-62
2023/10/16 11:30:53;;;;;;;14.00;1.08;;;13.40;99.90;;;;;;5017419;28;20049;-62
2023/10/16 11:34:00;;;;;;;4.00;0.90;;;13.50;99.90;;;;;;5032784;28;20053;-62
2023/10/16 11:36:28;;;;;;;11.18;1.92;;;13.50;99.90;;;;;;5035257;28;20360;-62
2023/10/16 11:38:58;;;;;;;4.78;1.00;;;13.50;99.90;;;;;;5003017;28;20053;-62
2023/10/16 11:41:26;;;;;;;7.50;1.55;;;13.60;99.90;;;;;;5032508;28;20041;-61
2023/10/16 11:43:53;;;;;;;6.88;1.60;;;13.60;99.90;;;;;;5013069;28;20041;-61
2023/10/16 11:46:28;;;;;;;3.70;1.02;;;13.60;99.90;;;;;;5033382;28;20517;-61
2023/10/16 11:51:52;;;;;;;4.55;1.30;;;13.70;99.90;;;;;;5036838;28;20040;-62
2023/10/16 11:54:21;;;;;;;5.55;1.27;;;13.70;99.90;;;;;;5031783;28;20095;-62
2023/10/16 11:56:54;;;;;;;5.57;1.40;;;13.60;99.90;;;;;;5031592;28;20306;-62
2023/10/16 11:59:21;;;;;;;6.80;1.15;;;13.60;99.90;;;;;;5032182;28;20031;-61
2023/10/16 12:01:51;;;;;;;7.32;1.10;;;13.50;99.90;;;;;;5014134;28;20479;-61
2023/10/16 12:04:20;;;;;;;6.63;1.30;;;13.50;99.90;;;;;;5016777;28;20041;-62
2023/10/16 12:06:49;;;;;;;5.80;1.38;;;13.60;99.90;;;;;;5017602;28;20044;-62
2023/10/16 12:09:22;;;;;;;6.05;1.15;;;13.60;99.90;;;;;;5013271;28;20044;-61
2023/10/16 12:11:50;;;;;;;8.48;1.60;;;13.60;99.90;;;;;;5014696;28;20157;-61
2023/10/16 12:14:18;;;;;;;5.25;1.70;;;13.60;99.90;;;;;;5012963;28;20053;-62
2023/10/16 12:16:47;;;;;;;4.10;1.05;;;13.50;99.90;;;;;;5031238;28;20469;-61
2023/10/16 12:19:17;;;;;;;5.13;1.40;;;13.60;99.90;;;;;;5031363;28;20068;-71
2023/10/16 12:21:47;;;;;;;7.25;1.27;;;13.60;99.90;;;;;;5035048;28;20102;-61
2023/10/16 12:24:14;;;;;;;4.43;1.30;;;13.50;99.90;;;;;;5013585;28;20067;-61
2023/10/16 12:26:43;;;;;;;6.28;1.52;;;13.50;99.90;;;;;;4996467;28;20613;-61
2023/10/16 12:29:10;;;;;;;7.80;1.42;;;13.50;99.90;;;;;;5014185;28;20053;-61
2023/10/16 12:31:36;;;;;;;5.10;1.65;;;13.50;99.90;;;;;;5022487;28;20051;-61
2023/10/16 12:34:03;;;;;;;6.10;1.30;;;13.60;99.90;;;;;;5029285;28;20407;-60
2023/10/16 12:36:31;;;;;;;4.28;1.10;;;13.60;99.90;;;;;;5004173;28;20854;-61
2023/10/16 12:38:59;;;;;;;6.70;1.27;;;13.70;99.90;;;;;;5023838;28;20054;-61
2023/10/16 12:41:25;;;;;;;5.18;1.20;;;13.80;99.90;;;;;;5003214;28;20081;-61
2023/10/16 12:43:50;;;;;;;7.78;1.25;;;13.80;99.90;;;;;;5005453;28;20037;-60
2023/10/16 12:46:17;;;;;;;6.28;1.10;;;13.80;99.90;;;;;;5023822;28;20420;-60
2023/10/16 12:48:44;;;;;;;7.80;1.10;;;13.80;99.90;;;;;;5020742;28;20384;-61
2023/10/16 12:51:10;;;;;;;4.75;1.20;;;13.80;99.90;;;;;;5023676;28;20059;-61
2023/10/16 12:53:39;;;;;;;5.38;1.05;;;13.90;99.90;;;;;;5019286;28;20048;-61
2023/10/16 12:56:06;;;;;;;6.13;1.40;;;13.90;99.90;;;;;;4989710;28;20045;-61
2023/10/16 12:58:35;;;;;;;8.00;1.35;;;14.00;99.90;;;;;;5019190;28;20217;-61
2023/10/16 13:01:10;;;;;;;8.65;1.45;;;14.00;99.90;;;;;;5022047;28;20033;-61
2023/10/16 13:03:36;;;;;;;7.55;1.20;;;14.10;99.90;;;;;;5024125;28;20487;-61
2023/10/16 13:06:08;;;;;;;7.97;1.35;;;14.10;99.90;;;;;;5002604;28;20049;-61
2023/10/16 13:08:34;;;;;;;10.82;1.65;;;14.10;99.90;;;;;;5006874;28;20491;-60
2023/10/16 13:11:08;;;;;;;7.15;1.20;;;14.10;99.90;;;;;;5009691;28;20157;-61
2023/10/16 13:13:34;;;;;;;7.40;1.10;;;14.10;99.90;;;;;;5003130;28;20045;-60
2023/10/16 13:16:00;;;;;;;4.60;1.17;;;14.00;99.90;;;;;;5023001;28;21565;-61
2023/10/16 13:18:30;;;;;;;5.13;1.00;;;14.00;99.90;;;;;;5001703;28;20033;-61
2023/10/16 13:21:15;;;;;;;3.92;1.00;;;14.00;99.90;;;;;;5003468;28;20506;-61
2023/10/16 13:23:41;;;;;;;6.00;1.10;;;14.00;99.90;;;;;;5019657;28;22562;-61
2023/10/16 13:26:10;;;;;;;4.43;0.95;;;14.00;99.90;;;;;;5021745;28;20049;-60
2023/10/16 13:28:38;;;;;;;6.80;0.80;;;14.10;99.90;;;;;;5003295;28;20131;-61
2023/10/16 13:31:04;;;;;;;3.47;0.90;;;14.10;99.90;;;;;;5005839;28;20087;-61
2023/10/16 13:33:33;;;;;;;5.28;0.90;;;14.10;99.90;;;;;;5021174;28;20057;-60
2023/10/16 13:36:00;;;;;;;3.95;1.00;;;14.00;99.90;;;;;;5002557;28;20048;-61
2023/10/16 13:38:26;;;;;;;6.10;1.23;;;14.00;99.90;;;;;;4976756;28;20124;-61
2023/10/16 13:40:53;;;;;;;5.05;1.27;;;14.00;99.90;;;;;;5013006;28;21054;-61
2023/10/16 13:43:19;;;;;;;4.05;0.95;;;14.00;99.90;;;;;;5023117;28;20048;-61
2023/10/16 13:45:45;;;;;;;4.60;0.90;;;14.00;99.90;;;;;;5023025;28;20072;-61
2023/10/16 13:48:12;;;;;;;5.10;1.00;;;13.90;99.90;;;;;;5025645;28;20092;-60
2023/10/16 13:50:40;;;;;;;3.50;1.00;;;13.90;99.90;;;;;;5024939;28;20036;-62
2023/10/16 13:53:08;;;;;;;1.77;0.68;;;13.90;99.90;;;;;;5023142;28;20104;-61
2023/10/16 13:55:34;;;;;;;4.45;1.27;;;13.90;99.90;;;;;;4991803;28;20126;-59
2023/10/16 13:58:00;;;;;;;5.82;1.30;;;13.90;99.90;;;;;;5008628;28;20750;-61
2023/10/16 14:00:29;;;;;;;2.05;0.77;;;13.80;99.90;;;;;;5020887;28;20578;-61
2023/10/16 14:03:09;;;;;;;4.88;1.27;;;13.80;99.90;;;;;;5005328;28;20079;-61
2023/10/16 14:05:50;;;;;;;3.05;0.73;;;13.70;99.90;;;;;;5005499;28;22312;-62
2023/10/16 14:08:25;;;;;;;5.85;1.35;;;13.60;99.90;;;;;;5008771;28;20037;-62
2023/10/16 14:10:52;;;;;;;3.38;0.80;;;13.60;99.90;;;;;;5022572;28;21076;-61
2023/10/16 14:13:19;;;;;;;6.47;1.15;;;13.60;99.90;;;;;;5023355;28;20052;-61
2023/10/16 14:15:49;;;;;;;5.07;1.00;;;13.60;99.90;;;;;;5012940;28;20530;-62
2023/10/16 14:18:20;;;;;;;5.13;0.80;;;13.50;99.90;;;;;;5017139;28;20049;-61
2023/10/16 14:20:49;;;;;;;4.32;0.90;;;13.50;99.90;;;;;;5028335;28;20067;-62
2023/10/16 14:23:17;;;;;;;8.10;1.20;;;13.50;99.90;;;;;;5026772;28;20040;-61
2023/10/16 14:25:48;;;;;;;10.07;1.50;;;13.50;99.90;;;;;;5028945;28;20037;-61
2023/10/16 14:28:40;;;;;;;8.00;1.10;;;13.50;99.90;;;;;;5011307;28;20048;-60
2023/10/16 14:31:09;;;;;;;7.45;1.20;;;13.50;99.90;;;;;;5010902;28;20041;-61
2023/10/16 14:33:36;;;;;;;4.55;0.90;;;13.40;99.90;;;;;;5029881;28;20053;-61
2023/10/16 14:36:16;;;;;;;6.80;1.35;;;13.40;99.90;;;;;;5007894;28;20053;-62
2023/10/16 14:38:43;;;;;;;7.13;1.05;;;13.40;99.90;;;;;;5021072;28;21514;-61
2023/10/16 14:41:15;;;;;;;8.35;1.20;;;13.40;99.90;;;;;;5025022;28;22434;-61
2023/10/16 14:43:41;;;;;;;3.28;1.02;;;13.40;99.90;;;;;;5008328;28;20075;-60
2023/10/16 14:46:10;;;;;;;3.70;1.00;;;13.30;99.90;;;;;;4996758;28;20127;-60
2023/10/16 14:48:45;;;;;;;5.43;1.45;;;13.30;99.90;;;;;;5021461;28;20138;-61
2023/10/16 14:51:16;;;;;;;7.80;1.52;;;13.30;99.90;;;;;;5021475;28;20511;-60
2023/10/16 14:53:47;;;;;;;5.07;1.10;;;13.20;99.90;;;;;;5021040;28;20380;-61
2023/10/16 14:56:18;;;;;;;5.40;1.13;;;13.20;99.90;;;;;;5023906;28;20063;-60
2023/10/16 14:58:45;;;;;;;5.18;1.25;;;13.20;99.90;;;;;;5025265;28;20120;-61
2023/10/16 15:01:15;;;;;;;5.93;1.30;;;13.20;99.90;;;;;;5007096;28;20681;-60
2023/10/16 15:03:44;;;;;;;7.40;1.85;;;13.20;99.90;;;;;;5023483;28;20053;-60
2023/10/16 15:06:12;;;;;;;4.00;1.10;;;13.10;99.90;;;;;;5024799;28;20456;-61
2023/10/16 15:08:45;;;;;;;5.97;1.00;;;13.10;99.90;;;;;;5026798;28;20037;-60
2023/10/16 15:11:11;;;;;;;7.47;1.00;;;13.10;99.90;;;;;;5007468;28;20049;-61